Time;durP1;ratioP1;P1;durP2;ratioP2;P2;SDS_P1;SDS_P2;PMS_P1;PMS_P2;Temp;Humidity;BMP_temperature;BMP_pressure;BME280_temperature;BME280_humidity;BME280_pressure;Samples;Min_cycle;Max_cycle;Signal;HPM_P1;HPM_P2
2022/10/02 00:02:45;;;;;;;4.00;2.30;;;;;;;12.78;100.00;98426.75;4830681;29;20049;-62
2022/10/02 00:05:16;;;;;;;4.53;2.83;;;;;;;12.60;100.00;98402.69;4823349;29;20134;-62
2022/10/02 00:07:53;;;;;;;4.30;3.03;;;;;;;12.78;100.00;98425.00;4821611;29;20042;-63
2022/10/02 00:10:23;;;;;;;3.88;2.95;;;;;;;12.77;100.00;98438.97;4822057;29;20058;-61
2022/10/02 00:12:54;;;;;;;5.63;2.65;;;;;;;12.71;100.00;98436.75;4823417;29;20838;-61
2022/10/02 00:15:25;;;;;;;5.60;2.28;;;;;;;12.66;100.00;98415.34;4837375;29;20056;-62
2022/10/02 00:18:19;;;;;;;5.40;3.13;;;;;;;12.61;100.00;98431.25;4884576;29;20056;-63
2022/10/02 00:21:06;;;;;;;6.22;2.80;;;;;;;12.56;100.00;98420.28;4894458;29;20409;-61
2022/10/02 00:24:02;;;;;;;3.15;2.25;;;;;;;12.52;100.00;98428.41;4882536;29;20139;-62
2022/10/02 00:27:04;;;;;;;4.20;2.80;;;;;;;12.45;100.00;98429.72;4857408;29;20056;-61
2022/10/02 00:29:43;;;;;;;5.30;2.95;;;;;;;12.40;100.00;98417.00;4842130;29;20045;-62
2022/10/02 00:32:09;;;;;;;3.53;2.55;;;;;;;12.36;100.00;98427.66;4857136;29;20105;-62
2022/10/02 00:34:39;;;;;;;3.42;2.60;;;;;;;12.31;100.00;98431.41;4854351;29;20073;-60
2022/10/02 00:37:25;;;;;;;6.72;2.60;;;;;;;12.29;100.00;98422.03;4833932;29;20057;-61
2022/10/02 00:40:47;;;;;;;4.40;2.97;;;;;;;12.28;100.00;98431.59;4844605;29;20516;-61
2022/10/02 00:43:34;;;;;;;4.88;3.15;;;;;;;12.28;100.00;98434.22;4853962;29;20053;-62
2022/10/02 00:46:40;;;;;;;4.32;2.50;;;;;;;12.29;100.00;98433.28;4850449;29;20038;-61
2022/10/02 00:49:29;;;;;;;3.47;2.63;;;;;;;12.31;100.00;98423.59;4786316;29;20051;-61
2022/10/02 00:52:03;;;;;;;4.22;2.70;;;;;;;12.30;100.00;98427.13;4777969;29;20051;-62
2022/10/02 00:55:18;;;;;;;3.88;2.50;;;;;;;12.31;100.00;98427.94;4776726;29;20548;-62
2022/10/02 00:58:21;;;;;;;3.72;2.20;;;;;;;12.20;100.00;98430.38;4763025;30;20058;-61
2022/10/02 01:01:08;;;;;;;3.83;2.65;;;;;;;12.13;100.00;98434.31;4750615;30;20043;-60
2022/10/02 01:03:43;;;;;;;3.53;2.80;;;;;;;12.09;100.00;98433.63;4730004;29;20081;-62
2022/10/02 01:09:27;;;;;;;4.57;2.65;;;;;;;11.88;100.00;98408.88;4774368;30;20070;-60
2022/10/02 01:11:54;;;;;;;4.90;2.50;;;;;;;12.07;100.00;98443.31;4781865;29;20061;-62
2022/10/02 01:14:20;;;;;;;3.40;2.17;;;;;;;12.11;100.00;98444.81;4767650;30;20083;-62
2022/10/02 01:16:47;;;;;;;3.42;2.35;;;;;;;12.12;100.00;98432.63;4767359;29;20062;-61
2022/10/02 01:19:29;;;;;;;4.57;2.45;;;;;;;12.10;100.00;98442.28;4796277;29;20101;-61
2022/10/02 01:22:07;;;;;;;3.38;2.40;;;;;;;12.08;100.00;98446.78;4812684;29;20188;-61
2022/10/02 01:24:59;;;;;;;4.18;2.20;;;;;;;11.86;100.00;98414.19;4832365;29;20518;-61
2022/10/02 01:27:26;;;;;;;4.47;2.35;;;;;;;12.05;100.00;98444.31;4821838;29;20557;-61
2022/10/02 01:29:56;;;;;;;3.70;2.53;;;;;;;11.75;100.00;98406.19;4821412;29;20046;-62
2022/10/02 01:32:25;;;;;;;3.03;1.90;;;;;;;11.99;100.00;98437.72;4821078;29;20057;-61
2022/10/02 01:34:55;;;;;;;4.00;1.58;;;;;;;11.95;100.00;98453.63;4863700;29;20052;-60
2022/10/02 01:37:27;;;;;;;3.17;2.22;;;;;;;11.92;100.00;98441.63;4892062;29;20123;-60
2022/10/02 01:39:56;;;;;;;2.75;1.50;;;;;;;11.77;100.00;98412.16;4879406;29;20041;-60
2022/10/02 01:42:22;;;;;;;2.45;1.70;;;;;;;11.92;100.00;98446.84;4877359;29;20037;-62
2022/10/02 01:44:47;;;;;;;3.53;1.60;;;;;;;11.93;100.00;98450.28;4894404;29;20476;-62
2022/10/02 01:47:18;;;;;;;3.08;1.85;;;;;;;11.97;100.00;98452.63;4894197;29;20058;-61
2022/10/02 01:50:06;;;;;;;3.42;1.80;;;;;;;11.99;100.00;98453.34;4878135;29;20047;-61
2022/10/02 01:52:43;;;;;;;1.67;1.00;;;;;;;11.70;99.88;98396.94;4893414;29;20067;-62
2022/10/02 01:55:30;;;;;;;;;;;;;;;11.97;99.79;98451.78;4892259;29;20039;-62
2022/10/02 01:57:59;;;;;;;2.38;1.60;;;;;;;11.96;99.88;98452.69;4893125;29;19942;-61
2022/10/02 02:00:26;;;;;;;2.03;1.40;;;;;;;11.78;99.59;98434.63;4875045;29;20040;-62
2022/10/02 02:03:14;;;;;;;4.20;1.58;;;;;;;11.91;99.48;98449.53;4884072;29;20052;-63
2022/10/02 02:05:57;;;;;;;3.23;1.97;;;;;;;11.93;99.15;98460.72;4893342;29;20048;-62
2022/10/02 02:08:45;;;;;;;3.15;1.88;;;;;;;11.93;99.50;98453.75;4907632;29;20045;-61
2022/10/02 02:11:17;;;;;;;2.22;1.48;;;;;;;11.92;98.99;98444.25;4885344;29;20043;-62
2022/10/02 02:14:08;;;;;;;5.15;1.75;;;;;;;11.95;99.31;98461.44;4898819;29;20059;-62
2022/10/02 02:16:34;;;;;;;2.58;1.40;;;;;;;11.91;99.29;98459.94;4895454;29;20069;-63
2022/10/02 02:19:14;;;;;;;5.30;1.67;;;;;;;11.86;99.38;98452.41;4890811;29;20049;-61
2022/10/02 02:21:52;;;;;;;2.15;1.27;;;;;;;11.68;99.49;98423.03;4895138;29;20440;-62
2022/10/02 02:24:33;;;;;;;2.28;1.60;;;;;;;11.85;99.96;98461.16;4894849;29;20046;-62
2022/10/02 02:27:00;;;;;;;1.30;0.80;;;;;;;11.81;99.87;98454.44;4893930;29;20052;-62
2022/10/02 02:29:29;;;;;;;4.00;1.50;;;;;;;11.86;99.60;98473.25;4888222;29;20044;-61
2022/10/02 02:31:57;;;;;;;3.45;1.50;;;;;;;11.83;99.31;98460.38;4860020;29;20049;-61
2022/10/02 02:34:34;;;;;;;2.35;1.48;;;;;;;11.58;98.89;98424.50;4906554;29;20040;-62
2022/10/02 02:37:05;;;;;;;3.53;1.58;;;;;;;11.74;99.01;98461.78;4893715;29;20524;-60
2022/10/02 02:39:39;;;;;;;2.75;1.38;;;;;;;11.79;99.33;98467.56;4891842;29;20119;-61
2022/10/02 02:42:07;;;;;;;3.05;1.30;;;;;;;11.78;99.13;98462.44;4892133;29;20092;-62
2022/10/02 02:44:42;;;;;;;1.95;1.08;;;;;;;11.81;98.99;98468.31;4893611;29;20060;-61
2022/10/02 02:47:21;;;;;;;4.57;1.52;;;;;;;11.60;98.96;98438.28;4890135;29;20045;-60
2022/10/02 02:49:49;;;;;;;4.78;1.38;;;;;;;11.83;98.74;98468.19;4894097;29;20051;-62
2022/10/02 02:52:28;;;;;;;2.28;1.00;;;;;;;11.84;98.96;98472.47;4894679;29;20049;-61
2022/10/02 02:55:16;;;;;;;1.90;1.50;;;;;;;11.82;98.80;98462.19;4882421;29;20068;-60
2022/10/02 02:58:06;;;;;;;2.67;1.30;;;;;;;11.81;99.20;98473.53;4890797;29;20052;-61
2022/10/02 03:00:32;;;;;;;1.70;1.10;;;;;;;11.69;99.16;98471.59;4894514;29;20092;-61
2022/10/02 03:02:58;;;;;;;4.38;1.08;;;;;;;11.63;100.00;98474.53;4892372;29;20143;-61
2022/10/02 03:05:26;;;;;;;1.15;0.80;;;;;;;11.58;100.00;98468.78;4877722;29;20036;-60
2022/10/02 03:08:03;;;;;;;2.92;1.27;;;;;;;11.55;100.00;98475.94;4862378;29;20433;-62
2022/10/02 03:10:55;;;;;;;2.65;1.13;;;;;;;11.51;100.00;98485.69;4893555;29;20044;-60
2022/10/02 03:13:44;;;;;;;2.42;1.10;;;;;;;11.44;100.00;98476.53;4867054;29;20587;-62
2022/10/02 03:16:42;;;;;;;2.95;1.48;;;;;;;11.45;100.00;98470.41;4893099;29;20048;-61
2022/10/02 03:19:27;;;;;;;4.03;1.50;;;;;;;11.45;100.00;98471.25;4859903;29;20517;-63
2022/10/02 03:22:19;;;;;;;3.78;1.50;;;;;;;11.40;100.00;98483.69;4856468;29;20056;-63
2022/10/02 03:24:53;;;;;;;3.17;1.50;;;;;;;11.36;100.00;98484.75;4839958;29;20056;-62
2022/10/02 03:27:50;;;;;;;3.90;1.40;;;;;;;11.31;100.00;98473.78;4872637;29;20041;-62
2022/10/02 03:30:20;;;;;;;1.15;0.88;;;;;;;11.28;100.00;98481.78;4858080;29;20673;-62
2022/10/02 03:32:50;;;;;;;1.63;0.70;;;;;;;11.26;100.00;98496.63;4874229;29;20060;-64
2022/10/02 03:35:19;;;;;;;1.00;0.50;;;;;;;11.20;100.00;98490.94;4873664;29;20044;-62
2022/10/02 03:37:46;;;;;;;;;;;;;;;11.19;99.15;98497.91;4856146;29;20525;-61
2022/10/02 03:40:14;;;;;;;1.48;1.00;;;;;;;11.13;96.88;98485.22;4874924;29;20127;-61
2022/10/02 03:42:41;;;;;;;1.63;0.85;;;;;;;11.12;95.02;98499.16;4841579;29;20081;-62
2022/10/02 03:45:08;;;;;;;0.30;0.30;;;;;;;11.09;92.86;98486.34;4858564;29;20152;-62
2022/10/02 03:47:33;;;;;;;0.50;0.20;;;;;;;11.14;91.96;98486.06;4871699;29;20505;-61
2022/10/02 03:50:03;;;;;;;0.35;0.30;;;;;;;11.15;90.90;98482.56;4873520;29;20184;-62
2022/10/02 03:52:30;;;;;;;0.85;0.20;;;;;;;11.16;90.43;98476.41;4856927;29;20097;-63
2022/10/02 03:55:02;;;;;;;0.40;0.30;;;;;;;11.16;90.22;98479.84;4872260;29;20088;-62
2022/10/02 03:57:29;;;;;;;1.02;0.40;;;;;;;11.15;89.16;98483.38;4857909;29;20543;-62
2022/10/02 04:00:08;;;;;;;0.75;0.32;;;;;;;11.17;89.73;98484.13;4874368;29;20062;-61
2022/10/02 04:02:52;;;;;;;0.30;0.25;;;;;;;11.16;88.57;98482.44;4857035;29;20057;-62
2022/10/02 04:05:33;;;;;;;0.20;0.20;;;;;;;11.08;87.34;98492.44;4871342;29;20421;-61
2022/10/02 04:08:16;;;;;;;0.32;0.32;;;;;;;10.84;86.83;98454.78;4881178;29;20053;-63
2022/10/02 04:10:54;;;;;;;0.20;0.20;;;;;;;10.84;86.40;98466.03;4840755;29;20056;-57
2022/10/02 04:13:29;;;;;;;0.20;0.10;;;;;;;10.93;85.62;98483.75;4874436;29;20549;-62
2022/10/02 04:16:16;;;;;;;0.65;0.20;;;;;;;10.94;86.31;98487.16;4879047;29;20117;-62
2022/10/02 04:19:14;;;;;;;0.20;0.10;;;;;;;10.79;85.80;98457.63;4890761;29;20056;-63
2022/10/02 04:21:43;;;;;;;0.20;0.20;;;;;;;11.00;85.64;98500.66;4871037;29;20053;-61
2022/10/02 04:24:20;;;;;;;0.50;0.30;;;;;;;10.83;85.73;98468.72;4896412;29;20052;-62
2022/10/02 04:26:54;;;;;;;1.45;0.28;;;;;;;11.00;85.54;98508.47;4896175;29;20507;-63
2022/10/02 04:29:23;;;;;;;1.10;0.22;;;;;;;10.98;85.93;98507.72;4896892;29;20075;-62
2022/10/02 04:31:53;;;;;;;0.15;0.10;;;;;;;11.01;85.19;98498.91;4896103;29;20420;-61
2022/10/02 04:34:20;;;;;;;1.67;0.30;;;;;;;11.00;84.81;98511.06;4892554;29;20059;-62
2022/10/02 04:37:01;;;;;;;0.10;0.10;;;;;;;10.66;84.29;98454.03;4883385;29;20053;-63
2022/10/02 04:39:28;;;;;;;;;;;;;;;10.94;83.43;98508.78;4897808;29;20041;-62
2022/10/02 04:42:18;;;;;;;;;;;;;;;10.95;83.92;98507.88;4894949;29;19923;-61
2022/10/02 04:44:56;;;;;;;;;;;;;;;10.98;83.82;98514.69;4883238;29;20462;-61
2022/10/02 04:47:21;;;;;;;;;;;;;;;10.97;83.87;98519.06;4892636;29;19919;-62
2022/10/02 04:50:01;;;;;;;;;;;;;;;10.94;83.25;98518.34;4896902;29;20006;-61
2022/10/02 04:52:47;;;;;;;;;;;;;;;10.93;83.39;98535.75;4895538;29;19919;-62
2022/10/02 04:55:31;;;;;;;;;;;;;;;10.88;83.39;98511.75;4896579;29;19919;-63
2022/10/02 04:58:06;;;;;;;;;;;;;;;10.96;84.00;98511.31;4896003;29;19926;-61
2022/10/02 05:00:41;;;;;;;;;;;;;;;10.90;82.96;98509.91;4876694;29;20429;-62
2022/10/02 05:03:08;;;;;;;;;;;;;;;10.89;82.68;98496.97;4891461;29;20329;-62
2022/10/02 05:05:40;;;;;;;;;;;;;;;10.91;82.90;98502.94;4895306;29;19958;-62
2022/10/02 05:08:29;;;;;;;;;;;;;;;10.93;82.30;98496.75;4895972;29;19930;-62
2022/10/02 05:11:04;;;;;;;;;;;;;;;10.95;82.23;98500.09;4895332;29;19924;-62
2022/10/02 05:13:38;;;;;;;;;;;;;;;10.95;82.25;98483.63;4895867;29;19954;-63
2022/10/02 05:16:23;;;;;;;;;;;;;;;10.98;82.31;98493.88;4893758;29;20404;-61
2022/10/02 05:18:54;;;;;;;;;;;;;;;11.03;81.98;98490.13;4913812;29;19923;-63
2022/10/02 05:21:20;;;;;;;;;;;;;;;11.05;81.43;98488.25;4882821;29;19923;-62
2022/10/02 05:23:46;;;;;;;;;;;;;;;11.07;81.86;98495.13;4898212;29;19919;-62
2022/10/02 05:26:26;;;;;;;;;;;;;;;11.07;81.89;98501.19;4911803;29;19978;-61
2022/10/02 05:28:54;;;;;;;;;;;;;;;11.07;81.89;98492.53;4877220;29;20067;-62
2022/10/02 05:31:38;;;;;;;;;;;;;;;11.06;81.92;98507.28;4910357;29;20006;-62
2022/10/02 05:34:33;;;;;;;;;;;;;;;11.01;81.33;98502.34;4915071;29;19923;-63
2022/10/02 05:37:00;;;;;;;;;;;;;;;11.15;81.65;98501.56;4819279;29;19928;-64
2022/10/02 05:39:38;;;;;;;;;;;;;;;11.09;81.32;98504.53;4820143;29;19959;-61
2022/10/02 05:42:16;;;;;;;;;;;;;;;11.13;81.45;98507.81;4807310;29;19921;-61
2022/10/02 05:44:49;;;;;;;;;;;;;;;11.05;81.08;98524.66;4820414;29;19986;-63
2022/10/02 05:47:34;;;;;;;;;;;;;;;11.00;80.91;98512.81;4798349;29;19921;-62
2022/10/02 05:50:13;;;;;;;;;;;;;;;10.93;82.32;98517.53;4816601;29;19924;-62
2022/10/02 05:53:00;;;;;;;;;;;;;;;10.93;82.45;98520.16;4804573;29;19921;-61
2022/10/02 05:55:33;;;;;;;;;;;;;;;10.85;83.23;98517.09;4801797;29;19921;-61
2022/10/02 05:58:14;;;;;;;;;;;;;;;10.91;83.09;98521.97;4803094;29;20324;-62
2022/10/02 06:00:43;;;;;;;;;;;;;;;10.89;82.94;98533.38;4787786;29;19921;-62
2022/10/02 06:03:11;;;;;;;;;;;;;;;10.85;82.81;98527.50;4814056;29;19947;-62
2022/10/02 06:05:40;;;;;;;;;;;;;;;10.84;82.37;98506.78;4815258;29;19961;-62
2022/10/02 06:08:06;;;;;;;;;;;;;;;10.91;82.51;98511.56;4818009;29;20068;-61
2022/10/02 06:10:42;;;;;;;;;;;;;;;10.93;81.60;98517.53;4770994;29;20508;-61
2022/10/02 06:13:10;;;;;;;;;;;;;;;11.01;81.37;98512.75;4858328;29;19919;-60
2022/10/02 06:15:42;;;;;;;;;;;;;;;11.05;80.35;98521.22;4898333;29;20638;-61
2022/10/02 06:18:09;;;;;;;;;;;;;;;11.12;80.12;98517.38;4893538;29;20002;-61
2022/10/02 06:21:08;;;;;;;;;;;;;;;11.17;79.08;98517.94;4895347;29;19966;-62
2022/10/02 06:23:39;;;;;;;;;;;;;;;11.27;79.05;98516.50;4877983;29;19919;-61
2022/10/02 06:26:08;;;;;;;;;;;;;;;11.42;78.52;98513.03;4895341;29;19962;-62
2022/10/02 06:28:36;;;;;;;;;;;;;;;11.51;77.81;98523.88;4894833;29;19923;-61
2022/10/02 06:31:31;;;;;;;;;;;;;;;11.62;77.15;98521.50;4895014;29;19919;-61
2022/10/02 06:33:58;;;;;;;;;;;;;;;11.72;76.59;98515.66;4843619;29;19920;-63
2022/10/02 06:36:24;;;;;;;;;;;;;;;11.75;76.38;98525.09;4878996;29;19919;-62
2022/10/02 06:38:56;;;;;;;;;;;;;;;11.80;75.96;98538.69;4894371;29;19960;-60
2022/10/02 06:41:26;;;;;;;;;;;;;;;11.69;74.48;98535.84;4893927;29;20026;-61
2022/10/02 06:44:06;;;;;;;;;;;;;;;11.72;74.58;98535.69;4894973;29;19919;-63
2022/10/02 06:46:42;;;;;;;;;;;;;;;11.90;74.40;98526.81;4893611;29;20383;-61
2022/10/02 06:49:21;;;;;;;;;;;;;;;11.95;73.79;98522.19;4879360;29;20363;-62
2022/10/02 06:51:46;;;;;;;;;;;;;;;12.05;73.55;98531.13;4895197;29;20022;-60
2022/10/02 06:54:32;;;;;;;;;;;;;;;12.15;72.99;98511.41;4889825;29;20010;-61
2022/10/02 06:56:58;;;;;;;;;;;;;;;12.08;72.01;98523.16;4861575;29;19923;-61
2022/10/02 06:59:30;;;;;;;;;;;;;;;12.13;71.85;98525.50;4892414;29;19919;-62
2022/10/02 07:02:01;;;;;;;;;;;;;;;12.21;71.93;98531.06;4876403;29;19926;-60
2022/10/02 07:04:41;;;;;;;;;;;;;;;12.34;71.46;98528.59;4897151;29;19970;-60
2022/10/02 07:07:18;;;;;;;;;;;;;;;12.47;71.38;98524.28;4892699;29;19962;-61
2022/10/02 07:10:06;;;;;;;;;;;;;;;12.44;71.55;98527.94;4892456;29;19986;-63
2022/10/02 07:12:34;;;;;;;;;;;;;;;12.53;70.77;98526.53;4885408;29;19919;-60
2022/10/02 07:15:09;;;;;;;;;;;;;;;12.47;70.73;98521.69;4894525;29;19923;-62
2022/10/02 07:17:48;;;;;;;;;;;;;;;12.57;70.78;98523.66;4886958;29;19924;-64
2022/10/02 07:20:28;;;;;;;;;;;;;;;12.48;70.50;98529.41;4892530;29;20002;-62
2022/10/02 07:23:17;;;;;;;;;;;;;;;12.38;70.38;98530.06;4891405;29;19920;-61
2022/10/02 07:25:57;;;;;;;;;;;;;;;12.53;70.58;98534.34;4886144;29;19919;-65
2022/10/02 07:28:35;;;;;;;;;;;;;;;12.89;70.07;98526.88;4859782;29;19923;-61
2022/10/02 07:31:05;;;;;;;;;;;;;;;13.28;69.01;98517.53;4893401;29;19995;-61
2022/10/02 07:33:41;;;;;;;;;;;;;;;13.50;68.21;98525.66;4890933;29;19919;-61
2022/10/02 07:36:12;;;;;;;;;;;;;;;13.72;67.37;98525.91;4890419;29;19919;-62
2022/10/02 07:38:58;;;;;;;;;;;;;;;13.82;66.87;98528.75;4883061;29;19966;-61
2022/10/02 07:41:39;;;;;;;;;;;;;;;13.75;65.94;98530.13;4893352;29;19919;-61
2022/10/02 07:44:05;;;;;;;;;;;;;;;13.70;65.96;98534.81;4892970;29;19926;-61
2022/10/02 07:46:30;;;;;;;;;;;;;;;13.83;66.01;98538.28;4893871;29;19923;-61
2022/10/02 07:48:59;;;;;;;;;;;;;;;13.85;65.49;98542.47;4895732;29;20764;-61
2022/10/02 07:51:46;;;;;;;;;;;;;;;13.81;65.21;98537.56;4896189;29;20005;-61
2022/10/02 07:54:15;;;;;;;;;;;;;;;13.84;65.34;98545.19;4894646;29;19942;-62
2022/10/02 07:56:42;;;;;;;;;;;;;;;13.81;65.26;98530.56;4895563;29;19926;-61
2022/10/02 07:59:09;;;;;;;;;;;;;;;13.90;64.89;98523.88;4865768;29;19926;-62
2022/10/02 08:01:36;;;;;;;;;;;;;;;13.81;65.18;98527.09;4893050;29;20458;-61
2022/10/02 08:04:38;;;;;;;;;;;;;;;13.70;65.59;98530.41;4869064;29;20303;-61
2022/10/02 08:07:04;;;;;;;;;;;;;;;13.37;66.18;98536.03;4840148;29;20485;-61
2022/10/02 08:09:39;;;;;;;;;;;;;;;13.19;66.80;98537.19;4879805;29;20022;-61
2022/10/02 08:12:08;;;;;;;;;;;;;;;13.02;67.33;98535.63;4893078;29;19919;-61
2022/10/02 08:14:40;;;;;;;;;;;;;;;12.94;67.99;98535.25;4900126;29;20006;-62
2022/10/02 08:17:26;;;;;;;;;;;;;;;12.97;67.95;98535.09;4901085;29;19923;-62
2022/10/02 08:19:52;;;;;;;;;;;;;;;13.07;67.81;98536.19;4913798;29;19958;-62
2022/10/02 08:22:44;;;;;;;;;;;;;;;13.06;67.73;98557.16;4872219;29;20374;-62
2022/10/02 08:25:25;;;;;;;;;;;;;;;13.02;67.85;98542.63;4822346;29;19928;-62
2022/10/02 08:28:00;;;;;;;;;;;;;;;13.02;67.88;98546.06;4806825;29;19925;-62
2022/10/02 08:30:27;;;;;;;;;;;;;;;12.99;68.27;98537.56;4837184;29;19920;-62
2022/10/02 08:32:53;;;;;;;;;;;;;;;13.02;68.45;98542.63;4838290;29;20289;-63
2022/10/02 08:35:20;;;;;;;;;;;;;;;13.12;68.25;98552.41;4836864;29;20035;-62
2022/10/02 08:37:58;;;;;;;;;;;;;;;13.07;68.11;98546.63;4822839;29;20007;-64
2022/10/02 08:40:42;;;;;;;;;;;;;;;13.09;68.39;98541.28;4837771;29;19920;-62
2022/10/02 08:43:20;;;;;;;;;;;;;;;13.17;68.21;98548.69;4823673;29;20313;-62
2022/10/02 08:46:06;;;;;;;;;;;;;;;13.32;68.23;98558.16;4827146;29;20039;-63
2022/10/02 08:48:54;;;;;;;;;;;;;;;13.21;67.70;98552.75;4820137;29;19947;-63
2022/10/02 08:51:38;;;;;;;;;;;;;;;13.06;68.35;98559.75;4798052;29;19920;-65
2022/10/02 08:54:10;;;;;;;;;;;;;;;12.98;68.56;98555.00;4837387;29;19964;-61
2022/10/02 08:56:57;;;;;;;;;;;;;;;13.01;68.60;98556.59;4838367;29;19920;-60
2022/10/02 08:59:24;;;;;;;;;;;;;;;13.00;68.72;98558.38;4828744;29;20290;-62
2022/10/02 09:02:12;;;;;;;;;;;;;;;12.91;68.76;98552.88;4855551;29;20018;-60
2022/10/02 09:04:39;;;;;;;;;;;;;;;13.01;68.93;98562.66;4890724;29;19998;-59
2022/10/02 09:07:39;;;;;;;5.95;3.22;;;;;;;13.09;68.51;98557.78;5106340;27;20412;-60
2022/10/02 09:10:26;;;;;;;0.95;0.60;;;;;;;13.42;68.30;98546.19;5092629;28;20047;-61
2022/10/02 09:13:27;;;;;;;0.63;0.50;;;;;;;13.29;67.81;98553.97;5072100;28;20041;-59
2022/10/02 09:16:06;;;;;;;0.68;0.47;;;;;;;13.22;68.26;98557.91;5067820;28;20516;-60
2022/10/02 09:18:59;;;;;;;0.77;0.40;;;;;;;13.20;68.71;98546.72;5065249;28;20427;-59
2022/10/02 09:21:41;;;;;;;1.60;0.50;;;;;;;13.16;68.32;98563.50;5048858;28;20051;-61
2022/10/02 09:24:55;;;;;;;1.50;0.50;;;;;;;13.08;68.53;98560.50;5067495;28;20044;-57
2022/10/02 09:27:45;;;;;;;0.82;0.47;;;;;;;13.05;68.65;98560.69;5064056;28;20516;-58
2022/10/02 09:30:41;;;;;;;0.90;0.40;;;;;;;13.13;68.75;98561.09;5053952;28;20036;-57
2022/10/02 09:33:38;;;;;;;1.45;0.47;;;;;;;13.07;68.42;98566.66;5051206;28;20048;-58
2022/10/02 09:36:33;;;;;;;0.90;0.60;;;;;;;12.94;68.56;98558.75;5034262;28;20072;-52
2022/10/02 09:39:26;;;;;;;0.90;0.73;;;;;;;12.97;68.82;98561.19;5063648;28;20057;-57
2022/10/02 09:42:20;;;;;;;2.58;0.70;;;;;;;13.15;68.89;98554.00;5063544;28;20049;-55
2022/10/02 09:45:03;;;;;;;2.28;0.50;;;;;;;13.21;68.55;98555.38;5051903;28;20087;-61
2022/10/02 09:48:03;;;;;;;1.67;0.70;;;;;;;13.25;68.55;98564.69;5062505;28;20056;-61
2022/10/02 09:50:35;;;;;;;1.13;0.68;;;;;;;13.20;68.52;98557.16;5063511;28;20103;-58
2022/10/02 09:53:09;;;;;;;0.90;0.50;;;;;;;13.22;68.75;98572.72;5058278;28;20090;-60
2022/10/02 09:55:53;;;;;;;1.35;0.50;;;;;;;13.14;68.14;98562.75;5052401;28;20048;-56
2022/10/02 09:58:24;;;;;;;1.25;0.55;;;;;;;13.16;68.28;98555.66;5043331;28;20589;-61
2022/10/02 10:01:16;;;;;;;0.93;0.50;;;;;;;13.09;68.04;98565.59;5055241;28;20048;-63
2022/10/02 15:21:29;;;;;;;5.00;2.67;;;;;;;12.12;78.74;98389.19;5100312;27;20934;-56
2022/10/02 15:23:58;;;;;;;3.63;1.98;;;;;;;12.22;80.32;98395.50;5104180;28;20039;-60
2022/10/02 15:26:45;;;;;;;2.78;2.13;;;;;;;12.35;81.47;98394.75;5105101;28;20043;-60
2022/10/02 15:29:32;;;;;;;7.68;3.90;;;;;;;12.49;81.74;98392.09;5103973;28;20032;-60
2022/10/02 15:32:28;;;;;;;5.60;2.33;;;;;;;12.61;81.27;98384.34;5086797;28;20035;-61
2022/10/02 15:35:10;;;;;;;8.18;2.70;;;;;;;12.72;80.82;98378.44;5102588;28;20079;-65
2022/10/02 15:37:48;;;;;;;4.18;2.47;;;;;;;12.80;80.67;98368.38;5104581;28;20856;-64
2022/10/02 15:40:46;;;;;;;7.27;2.17;;;;;;;12.74;80.07;98355.72;5104534;28;20485;-55
2022/10/02 15:43:15;;;;;;;5.68;2.60;;;;;;;12.97;79.66;98373.34;5097798;28;20320;-60
2022/10/02 15:45:41;;;;;;;;;;;;;;;13.03;78.98;98379.94;5104537;28;20035;-69
2022/10/02 15:48:32;;;;;;;9.02;2.90;;;;;;;13.04;78.49;98366.75;5104266;28;19930;-69
2022/10/02 15:51:12;;;;;;;5.03;2.90;;;;;;;13.09;78.28;98356.88;5104443;28;20032;-67
2022/10/02 15:53:57;;;;;;;10.43;3.70;;;;;;;13.15;77.74;98356.50;5105755;28;20063;-60
2022/10/02 15:56:30;;;;;;;10.02;3.67;;;;;;;13.19;77.08;98351.91;5101534;28;20089;-62
2022/10/02 15:59:29;;;;;;;7.53;3.45;;;;;;;13.24;76.45;98351.63;5103751;28;20039;-59
2022/10/02 16:02:06;;;;;;;6.07;3.58;;;;;;;13.14;76.02;98328.72;5104700;28;20036;-65
2022/10/02 16:04:39;;;;;;;7.38;3.67;;;;;;;13.28;75.93;98343.50;5105477;28;20035;-59
2022/10/02 16:07:29;;;;;;;6.40;3.42;;;;;;;13.30;75.93;98331.16;5105437;28;20067;-64
2022/10/02 16:10:23;;;;;;;6.90;4.22;;;;;;;13.31;75.80;98334.59;5104009;28;20126;-60
2022/10/02 16:13:11;;;;;;;13.63;6.35;;;;;;;13.29;75.91;98326.06;5101903;28;20058;-61
2022/10/02 16:15:46;;;;;;;11.43;4.20;;;;;;;13.30;75.71;98325.09;5103622;28;20055;-58
2022/10/02 16:18:26;;;;;;;8.63;3.90;;;;;;;13.28;75.68;98319.16;5111998;28;20782;-62
2022/10/02 16:21:08;;;;;;;9.25;4.20;;;;;;;13.33;75.76;98323.13;5098558;28;20585;-63
2022/10/02 16:23:51;;;;;;;8.57;3.80;;;;;;;13.34;75.78;98316.16;5105633;28;20134;-61
2022/10/02 16:27:02;;;;;;;6.72;4.20;;;;;;;13.32;75.75;98311.00;5103005;28;20047;-62
2022/10/02 16:29:53;;;;;;;7.35;4.70;;;;;;;13.31;75.71;98311.13;5104343;28;20039;-61
2022/10/02 16:32:19;;;;;;;;;;;;;;;13.26;75.50;98307.97;5062302;28;20497;-61
2022/10/02 16:35:26;;;;;;;5.75;4.00;;;;;;;13.21;75.71;98310.06;5090885;28;19922;-59
2022/10/02 16:37:59;;;;;;;7.32;4.32;;;;;;;13.19;75.74;98304.94;5091430;28;20036;-61
2022/10/02 16:40:25;;;;;;;10.35;4.80;;;;;;;13.18;75.71;98294.63;5090756;28;20052;-61
2022/10/02 16:43:18;;;;;;;6.72;3.95;;;;;;;13.17;76.03;98308.59;5090116;28;20054;-54
2022/10/02 16:45:58;;;;;;;8.10;4.70;;;;;;;13.15;75.97;98304.31;5090181;28;20085;-60
2022/10/02 16:48:48;;;;;;;11.80;4.70;;;;;;;13.17;76.12;98303.38;5092195;28;20064;-58
2022/10/02 16:51:38;;;;;;;12.20;5.78;;;;;;;13.18;75.77;98294.63;5089680;28;20043;-57
2022/10/02 16:54:07;;;;;;;8.68;4.85;;;;;;;13.18;76.02;98286.78;5090028;28;20047;-57
2022/10/02 16:56:41;;;;;;;11.93;5.35;;;;;;;12.93;75.93;98238.81;5079504;28;20036;-61
2022/10/02 16:59:18;;;;;;;10.57;5.40;;;;;;;13.24;75.96;98292.41;5085794;28;20047;-54
2022/10/02 17:01:49;;;;;;;9.23;5.50;;;;;;;13.28;75.83;98293.06;5087134;28;20116;-57
2022/10/02 17:04:21;;;;;;;13.20;5.93;;;;;;;13.31;75.58;98290.22;5056741;28;20044;-61
2022/10/02 17:07:04;;;;;;;12.20;5.35;;;;;;;13.27;75.80;98279.16;5091105;28;20040;-59
2022/10/02 17:09:41;;;;;;;11.43;5.55;;;;;;;13.36;76.05;98282.94;5066363;28;20105;-57
2022/10/02 17:12:44;;;;;;;12.25;6.20;;;;;;;13.38;75.94;98281.06;5087503;28;20086;-56
2022/10/02 17:15:28;;;;;;;8.82;4.97;;;;;;;13.36;75.77;98272.47;5086493;28;20032;-58
2022/10/02 17:18:12;;;;;;;12.05;5.88;;;;;;;13.30;75.70;98270.28;5085862;28;20048;-59
2022/10/02 17:20:47;;;;;;;11.38;5.82;;;;;;;13.21;75.83;98248.25;5088322;28;20070;-58
2022/10/02 17:23:17;;;;;;;12.32;5.28;;;;;;;13.35;75.87;98263.81;5086516;28;20076;-58
2022/10/02 17:26:18;;;;;;;11.05;5.47;;;;;;;13.38;75.72;98262.78;5071037;28;20036;-60
2022/10/02 17:29:16;;;;;;;7.70;5.23;;;;;;;13.17;76.08;98225.94;5086308;28;20055;-57
2022/10/02 17:32:00;;;;;;;10.43;5.47;;;;;;;13.33;75.88;98249.22;5072087;28;20036;-60
2022/10/02 17:34:26;;;;;;;10.23;5.40;;;;;;;13.33;75.50;98241.38;5087040;28;20043;-61
2022/10/02 17:37:12;;;;;;;11.73;5.57;;;;;;;13.36;75.71;98243.78;5088926;28;20048;-61
2022/10/02 17:40:15;;;;;;;9.40;5.07;;;;;;;13.34;75.31;98230.84;5088932;28;20036;-57
2022/10/02 17:43:12;;;;;;;7.95;5.40;;;;;;;13.30;75.87;98228.53;5065366;28;20048;-59
2022/10/02 17:45:47;;;;;;;8.52;5.15;;;;;;;13.28;76.31;98225.19;5066190;28;20555;-60
2022/10/02 17:48:22;;;;;;;8.38;5.00;;;;;;;13.26;76.09;98220.06;5053367;28;20127;-59
2022/10/02 17:50:57;;;;;;;9.05;5.30;;;;;;;13.24;76.32;98201.06;5034724;28;20075;-62
2022/10/02 17:56:48;;;;;;;11.45;4.72;;;;;;;13.25;76.28;98196.69;5063305;28;20068;-56
2022/10/02 17:59:39;;;;;;;8.80;4.70;;;;;;;13.25;75.93;98183.63;5046851;28;20041;-58
2022/10/02 18:02:06;;;;;;;6.75;4.10;;;;;;;13.26;75.68;98185.31;5063163;28;21901;-58
2022/10/02 18:04:58;;;;;;;11.50;4.75;;;;;;;13.31;75.82;98193.66;5061144;28;20048;-54
2022/10/02 18:07:51;;;;;;;4.95;3.88;;;;;;;13.36;75.29;98186.34;5066853;28;20519;-57
2022/10/02 18:10:45;;;;;;;9.05;3.97;;;;;;;13.39;75.21;98183.53;5067308;28;20060;-54
2022/10/02 18:13:25;;;;;;;6.80;4.25;;;;;;;13.41;75.16;98198.13;5041908;28;20131;-54
2022/10/02 18:16:09;;;;;;;10.07;3.92;;;;;;;13.34;75.75;98185.63;5042750;28;20159;-52
2022/10/02 18:18:40;;;;;;;7.05;4.18;;;;;;;13.27;76.06;98140.00;5066324;28;20051;-57